sensor_id;sensor_type;location;lat;lon;timestamp;pressure;altitude;pressure_sealevel;temperature;humidity
20825;BME280;10573;50.936;6.978;2023-05-01T00:01:40;101324.69;;;15.26;51.21
20825;BME280;10573;50.936;6.978;2023-05-01T00:04:05;101321.06;;;15.18;50.92
20825;BME280;10573;50.936;6.978;2023-05-01T00:06:31;101322.69;;;15.29;50.67
20825;BME280;10573;50.936;6.978;2023-05-01T00:08:58;101312.91;;;15.34;50.55
20825;BME280;10573;50.936;6.978;2023-05-01T00:11:23;101308.75;;;15.22;50.35
20825;BME280;10573;50.936;6.978;2023-05-01T00:13:48;101319.13;;;15.10;50.49
20825;BME280;10573;50.936;6.978;2023-05-01T00:16:14;101311.28;;;15.15;50.87
20825;BME280;10573;50.936;6.978;2023-05-01T00:18:41;101310.72;;;15.12;51.16
20825;BME280;10573;50.936;6.978;2023-05-01T00:21:07;101307.50;;;15.16;51.18
20825;BME280;10573;50.936;6.978;2023-05-01T00:23:33;101299.78;;;15.20;50.75
20825;BME280;10573;50.936;6.978;2023-05-01T00:25:58;101299.28;;;15.16;50.45
20825;BME280;10573;50.936;6.978;2023-05-01T00:28:23;101300.16;;;15.25;50.51
20825;BME280;10573;50.936;6.978;2023-05-01T00:30:49;101299.75;;;15.38;50.79
20825;BME280;10573;50.936;6.978;2023-05-01T00:33:14;101295.44;;;15.35;50.62
20825;BME280;10573;50.936;6.978;2023-05-01T00:35:43;101290.75;;;15.27;50.92
20825;BME280;10573;50.936;6.978;2023-05-01T00:38:09;101294.63;;;15.17;51.35
20825;BME280;10573;50.936;6.978;2023-05-01T00:40:41;101296.72;;;14.97;51.62
20825;BME280;10573;50.936;6.978;2023-05-01T00:43:06;101293.78;;;15.16;50.90
20825;BME280;10573;50.936;6.978;2023-05-01T00:45:32;101288.81;;;15.20;51.25
20825;BME280;10573;50.936;6.978;2023-05-01T00:47:57;101291.13;;;15.06;51.13
20825;BME280;10573;50.936;6.978;2023-05-01T00:50:23;101285.00;;;15.13;50.98
20825;BME280;10573;50.936;6.978;2023-05-01T00:52:48;101278.50;;;15.14;50.63
20825;BME280;10573;50.936;6.978;2023-05-01T00:55:13;101275.50;;;15.33;49.89
20825;BME280;10573;50.936;6.978;2023-05-01T00:57:39;101274.50;;;15.08;50.18
20825;BME280;10573;50.936;6.978;2023-05-01T01:00:05;101273.84;;;15.14;49.92
20825;BME280;10573;50.936;6.978;2023-05-01T01:02:32;101271.66;;;15.18;49.41
20825;BME280;10573;50.936;6.978;2023-05-01T01:04:58;101271.69;;;15.26;48.95
20825;BME280;10573;50.936;6.978;2023-05-01T01:07:42;101262.81;;;15.32;49.12
20825;BME280;10573;50.936;6.978;2023-05-01T01:10:42;101257.84;;;15.36;49.16
20825;BME280;10573;50.936;6.978;2023-05-01T01:16:01;101251.44;;;15.19;49.76
20825;BME280;10573;50.936;6.978;2023-05-01T01:21:14;101255.69;;;15.21;49.66
20825;BME280;10573;50.936;6.978;2023-05-01T01:23:52;101249.53;;;15.19;49.89
20825;BME280;10573;50.936;6.978;2023-05-01T01:32:16;101240.53;;;15.35;49.51
20825;BME280;10573;50.936;6.978;2023-05-01T01:34:50;101238.81;;;15.42;49.29
20825;BME280;10573;50.936;6.978;2023-05-01T01:37:23;101227.13;;;15.32;48.93
20825;BME280;10573;50.936;6.978;2023-05-01T01:40:06;101227.03;;;15.50;48.76
20825;BME280;10573;50.936;6.978;2023-05-01T01:42:39;101224.09;;;15.52;48.81
20825;BME280;10573;50.936;6.978;2023-05-01T01:45:11;101225.81;;;15.44;48.96
20825;BME280;10573;50.936;6.978;2023-05-01T01:47:40;101224.63;;;15.47;49.17
20825;BME280;10573;50.936;6.978;2023-05-01T01:50:07;101225.03;;;15.26;48.98
20825;BME280;10573;50.936;6.978;2023-05-01T01:52:36;101212.88;;;15.29;49.11
20825;BME280;10573;50.936;6.978;2023-05-01T01:55:04;101217.22;;;15.48;48.68
20825;BME280;10573;50.936;6.978;2023-05-01T01:57:32;101212.59;;;15.48;48.64
20825;BME280;10573;50.936;6.978;2023-05-01T01:59:59;101207.94;;;15.40;48.68
20825;BME280;10573;50.936;6.978;2023-05-01T02:02:26;101212.25;;;15.08;48.84
20825;BME280;10573;50.936;6.978;2023-05-01T02:04:53;101200.34;;;15.26;48.45
20825;BME280;10573;50.936;6.978;2023-05-01T02:07:21;101203.41;;;15.23;48.95
20825;BME280;10573;50.936;6.978;2023-05-01T02:09:49;101194.56;;;15.46;48.32
20825;BME280;10573;50.936;6.978;2023-05-01T02:12:17;101198.13;;;15.30;48.33
20825;BME280;10573;50.936;6.978;2023-05-01T02:14:45;101196.78;;;15.42;48.10
20825;BME280;10573;50.936;6.978;2023-05-01T02:17:13;101196.16;;;15.56;47.44
20825;BME280;10573;50.936;6.978;2023-05-01T02:19:40;101187.69;;;15.41;47.59
20825;BME280;10573;50.936;6.978;2023-05-01T02:22:08;101187.38;;;15.53;47.63
20825;BME280;10573;50.936;6.978;2023-05-01T02:24:34;101186.66;;;15.42;47.80
20825;BME280;10573;50.936;6.978;2023-05-01T02:27:10;101178.78;;;15.48;47.72
20825;BME280;10573;50.936;6.978;2023-05-01T02:29:36;101178.97;;;15.54;47.38
20825;BME280;10573;50.936;6.978;2023-05-01T02:32:02;101169.88;;;15.54;47.32
20825;BME280;10573;50.936;6.978;2023-05-01T02:34:27;101174.81;;;15.42;48.23
20825;BME280;10573;50.936;6.978;2023-05-01T02:36:53;101167.75;;;15.31;48.09
20825;BME280;10573;50.936;6.978;2023-05-01T02:39:18;101165.53;;;15.35;48.17
20825;BME280;10573;50.936;6.978;2023-05-01T02:41:45;101163.69;;;15.52;47.64
20825;BME280;10573;50.936;6.978;2023-05-01T02:44:11;101163.66;;;15.35;48.08
20825;BME280;10573;50.936;6.978;2023-05-01T02:46:41;101158.41;;;15.16;48.28
20825;BME280;10573;50.936;6.978;2023-05-01T02:49:09;101151.59;;;15.28;48.58
20825;BME280;10573;50.936;6.978;2023-05-01T02:51:35;101149.25;;;15.41;47.69
20825;BME280;10573;50.936;6.978;2023-05-01T02:54:01;101145.59;;;15.24;48.30
20825;BME280;10573;50.936;6.978;2023-05-01T02:56:27;101143.88;;;15.23;48.10
20825;BME280;10573;50.936;6.978;2023-05-01T02:58:53;101133.44;;;15.27;48.45
20825;BME280;10573;50.936;6.978;2023-05-01T03:01:19;101135.50;;;15.33;47.99
20825;BME280;10573;50.936;6.978;2023-05-01T03:03:45;101138.13;;;15.43;47.94
20825;BME280;10573;50.936;6.978;2023-05-01T03:06:11;101132.75;;;15.33;47.93
20825;BME280;10573;50.936;6.978;2023-05-01T03:08:39;101129.69;;;15.36;47.63
20825;BME280;10573;50.936;6.978;2023-05-01T03:11:07;101130.81;;;15.17;48.02
20825;BME280;10573;50.936;6.978;2023-05-01T03:13:36;101129.97;;;15.17;48.10
20825;BME280;10573;50.936;6.978;2023-05-01T03:16:01;101123.81;;;15.23;48.25
20825;BME280;10573;50.936;6.978;2023-05-01T03:18:28;101113.84;;;15.22;48.34
20825;BME280;10573;50.936;6.978;2023-05-01T03:20:54;101116.25;;;15.17;48.39
20825;BME280;10573;50.936;6.978;2023-05-01T03:23:21;101124.69;;;14.89;49.09
20825;BME280;10573;50.936;6.978;2023-05-01T03:25:47;101128.09;;;14.74;49.64
20825;BME280;10573;50.936;6.978;2023-05-01T03:28:13;101114.91;;;14.86;49.36
20825;BME280;10573;50.936;6.978;2023-05-01T03:30:38;101117.84;;;14.93;49.58
20825;BME280;10573;50.936;6.978;2023-05-01T03:33:04;101113.31;;;14.75;49.40
20825;BME280;10573;50.936;6.978;2023-05-01T03:35:29;101109.75;;;14.83;49.60
20825;BME280;10573;50.936;6.978;2023-05-01T03:37:55;101112.31;;;14.76;49.70
20825;BME280;10573;50.936;6.978;2023-05-01T03:40:20;101102.88;;;14.79;49.90
20825;BME280;10573;50.936;6.978;2023-05-01T03:42:46;101106.88;;;14.93;49.92
20825;BME280;10573;50.936;6.978;2023-05-01T03:45:11;101110.44;;;14.51;50.83
20825;BME280;10573;50.936;6.978;2023-05-01T03:47:37;101106.00;;;14.58;50.86
20825;BME280;10573;50.936;6.978;2023-05-01T03:50:02;101099.16;;;14.62;50.66
20825;BME280;10573;50.936;6.978;2023-05-01T03:52:29;101101.63;;;14.65;50.38
20825;BME280;10573;50.936;6.978;2023-05-01T03:54:54;101106.59;;;14.43;51.61
20825;BME280;10573;50.936;6.978;2023-05-01T03:57:20;101109.44;;;14.60;51.23
20825;BME280;10573;50.936;6.978;2023-05-01T03:59:45;101101.06;;;14.62;51.62
20825;BME280;10573;50.936;6.978;2023-05-01T04:02:11;101106.94;;;14.40;51.21
20825;BME280;10573;50.936;6.978;2023-05-01T04:04:37;101106.94;;;14.40;51.61
20825;BME280;10573;50.936;6.978;2023-05-01T04:07:03;101103.56;;;14.47;51.56
20825;BME280;10573;50.936;6.978;2023-05-01T04:09:28;101103.47;;;14.30;51.82
20825;BME280;10573;50.936;6.978;2023-05-01T04:11:54;101102.78;;;14.36;52.08
20825;BME280;10573;50.936;6.978;2023-05-01T04:14:20;101103.75;;;14.27;52.40
20825;BME280;10573;50.936;6.978;2023-05-01T04:16:45;101100.75;;;14.38;52.18
20825;BME280;10573;50.936;6.978;2023-05-01T04:19:11;101090.63;;;14.13;52.69
20825;BME280;10573;50.936;6.978;2023-05-01T04:21:36;101105.69;;;14.08;52.94
20825;BME280;10573;50.936;6.978;2023-05-01T04:24:01;101095.59;;;14.09;52.91
20825;BME280;10573;50.936;6.978;2023-05-01T04:26:27;101099.38;;;13.72;53.93
20825;BME280;10573;50.936;6.978;2023-05-01T04:28:52;101093.66;;;14.01;53.58
20825;BME280;10573;50.936;6.978;2023-05-01T04:31:18;101100.13;;;14.00;53.62
20825;BME280;10573;50.936;6.978;2023-05-01T04:33:43;101100.63;;;13.96;53.63
20825;BME280;10573;50.936;6.978;2023-05-01T04:36:08;101099.41;;;14.16;53.43
20825;BME280;10573;50.936;6.978;2023-05-01T04:38:34;101094.47;;;13.75;54.61
20825;BME280;10573;50.936;6.978;2023-05-01T04:41:01;101100.41;;;13.89;54.27
20825;BME280;10573;50.936;6.978;2023-05-01T04:43:27;101094.81;;;13.99;54.20
20825;BME280;10573;50.936;6.978;2023-05-01T04:45:53;101092.72;;;13.92;54.36
20825;BME280;10573;50.936;6.978;2023-05-01T04:48:18;101098.84;;;13.86;54.61
20825;BME280;10573;50.936;6.978;2023-05-01T04:50:44;101094.47;;;13.75;54.63
20825;BME280;10573;50.936;6.978;2023-05-01T04:53:09;101096.94;;;13.87;54.43
20825;BME280;10573;50.936;6.978;2023-05-01T04:55:35;101104.41;;;13.76;54.12
20825;BME280;10573;50.936;6.978;2023-05-01T04:58:00;101099.84;;;14.03;53.80
20825;BME280;10573;50.936;6.978;2023-05-01T05:00:27;101107.47;;;14.18;53.22
20825;BME280;10573;50.936;6.978;2023-05-01T05:02:53;101101.53;;;14.04;53.47
20825;BME280;10573;50.936;6.978;2023-05-01T05:05:18;101095.66;;;13.99;53.72
20825;BME280;10573;50.936;6.978;2023-05-01T05:07:44;101100.56;;;14.14;53.40
20825;BME280;10573;50.936;6.978;2023-05-01T05:10:09;101093.88;;;14.34;52.87
20825;BME280;10573;50.936;6.978;2023-05-01T05:12:34;101099.38;;;14.34;52.84
20825;BME280;10573;50.936;6.978;2023-05-01T05:15:00;101095.63;;;14.43;52.62
20825;BME280;10573;50.936;6.978;2023-05-01T05:17:25;101090.53;;;14.49;51.95
20825;BME280;10573;50.936;6.978;2023-05-01T05:19:51;101093.34;;;14.31;52.66
20825;BME280;10573;50.936;6.978;2023-05-01T05:22:16;101097.53;;;14.43;52.22
20825;BME280;10573;50.936;6.978;2023-05-01T05:24:42;101094.44;;;14.46;52.28
20825;BME280;10573;50.936;6.978;2023-05-01T05:27:07;101095.06;;;14.32;53.00
20825;BME280;10573;50.936;6.978;2023-05-01T05:29:33;101093.97;;;14.51;52.52
20825;BME280;10573;50.936;6.978;2023-05-01T05:31:59;101100.44;;;14.41;52.76
20825;BME280;10573;50.936;6.978;2023-05-01T05:34:25;101099.41;;;14.69;52.32
20825;BME280;10573;50.936;6.978;2023-05-01T05:36:50;101095.66;;;14.70;51.86
20825;BME280;10573;50.936;6.978;2023-05-01T05:39:16;101103.69;;;14.71;51.83
20825;BME280;10573;50.936;6.978;2023-05-01T05:41:41;101091.56;;;14.82;51.14
20825;BME280;10573;50.936;6.978;2023-05-01T05:44:07;101097.22;;;14.81;51.28
20825;BME280;10573;50.936;6.978;2023-05-01T05:46:32;101092.63;;;14.81;50.62
20825;BME280;10573;50.936;6.978;2023-05-01T05:48:58;101090.88;;;14.72;51.22
20825;BME280;10573;50.936;6.978;2023-05-01T05:51:23;101102.75;;;14.89;51.83
20825;BME280;10573;50.936;6.978;2023-05-01T05:53:49;101090.13;;;15.04;51.04
20825;BME280;10573;50.936;6.978;2023-05-01T05:56:14;101086.41;;;15.22;50.15
20825;BME280;10573;50.936;6.978;2023-05-01T05:58:40;101088.09;;;15.15;50.52
20825;BME280;10573;50.936;6.978;2023-05-01T06:01:05;101084.13;;;15.09;49.82
20825;BME280;10573;50.936;6.978;2023-05-01T06:03:33;101079.44;;;14.93;50.30
20825;BME280;10573;50.936;6.978;2023-05-01T06:06:00;101084.97;;;15.01;50.33
20825;BME280;10573;50.936;6.978;2023-05-01T06:08:25;101084.16;;;15.17;49.49
20825;BME280;10573;50.936;6.978;2023-05-01T06:10:51;101083.25;;;15.00;49.91
20825;BME280;10573;50.936;6.978;2023-05-01T06:13:16;101085.41;;;15.31;49.67
20825;BME280;10573;50.936;6.978;2023-05-01T06:15:42;101082.69;;;15.56;49.09
20825;BME280;10573;50.936;6.978;2023-05-01T06:18:07;101079.28;;;15.54;48.91
20825;BME280;10573;50.936;6.978;2023-05-01T06:20:33;101076.00;;;15.50;48.97
20825;BME280;10573;50.936;6.978;2023-05-01T06:22:58;101074.09;;;15.59;48.67
20825;BME280;10573;50.936;6.978;2023-05-01T06:25:24;101074.63;;;15.54;49.25
20825;BME280;10573;50.936;6.978;2023-05-01T06:27:52;101072.41;;;15.74;48.36
20825;BME280;10573;50.936;6.978;2023-05-01T06:30:18;101075.81;;;15.68;48.62
20825;BME280;10573;50.936;6.978;2023-05-01T06:32:47;101076.34;;;15.64;48.59
20825;BME280;10573;50.936;6.978;2023-05-01T06:35:13;101073.97;;;15.60;48.58
20825;BME280;10573;50.936;6.978;2023-05-01T06:37:38;101075.16;;;15.50;48.64
20825;BME280;10573;50.936;6.978;2023-05-01T06:40:08;101071.88;;;15.54;48.77
20825;BME280;10573;50.936;6.978;2023-05-01T06:42:34;101073.44;;;15.73;48.11
20825;BME280;10573;50.936;6.978;2023-05-01T06:45:00;101081.31;;;15.68;48.30
20825;BME280;10573;50.936;6.978;2023-05-01T06:47:25;101074.09;;;15.51;48.45
20825;BME280;10573;50.936;6.978;2023-05-01T06:49:51;101071.03;;;15.62;48.13
20825;BME280;10573;50.936;6.978;2023-05-01T06:52:16;101072.41;;;15.58;47.92
20825;BME280;10573;50.936;6.978;2023-05-01T06:54:41;101074.50;;;15.81;48.08
20825;BME280;10573;50.936;6.978;2023-05-01T06:57:07;101069.84;;;15.81;48.33
20825;BME280;10573;50.936;6.978;2023-05-01T06:59:32;101070.19;;;15.94;47.52
20825;BME280;10573;50.936;6.978;2023-05-01T07:01:58;101073.97;;;16.02;47.33
20825;BME280;10573;50.936;6.978;2023-05-01T07:04:23;101071.38;;;16.25;47.65
20825;BME280;10573;50.936;6.978;2023-05-01T07:06:48;101070.00;;;16.13;46.99
20825;BME280;10573;50.936;6.978;2023-05-01T07:09:14;101068.78;;;16.23;46.94
20825;BME280;10573;50.936;6.978;2023-05-01T07:11:39;101070.13;;;16.44;46.99
20825;BME280;10573;50.936;6.978;2023-05-01T07:14:06;101065.16;;;16.31;47.49
20825;BME280;10573;50.936;6.978;2023-05-01T07:16:32;101070.28;;;16.51;46.67
20825;BME280;10573;50.936;6.978;2023-05-01T07:18:58;101058.00;;;16.70;46.19
20825;BME280;10573;50.936;6.978;2023-05-01T07:21:23;101064.25;;;16.47;46.54
20825;BME280;10573;50.936;6.978;2023-05-01T07:23:49;101059.91;;;16.61;47.37
20825;BME280;10573;50.936;6.978;2023-05-01T07:26:14;101057.41;;;16.91;45.78
20825;BME280;10573;50.936;6.978;2023-05-01T07:28:40;101055.16;;;16.86;45.85
20825;BME280;10573;50.936;6.978;2023-05-01T07:31:08;101058.69;;;16.64;46.20
20825;BME280;10573;50.936;6.978;2023-05-01T07:33:33;101055.41;;;17.08;45.52
20825;BME280;10573;50.936;6.978;2023-05-01T07:35:59;101054.84;;;17.21;45.61
20825;BME280;10573;50.936;6.978;2023-05-01T07:38:24;101056.06;;;16.78;46.26
20825;BME280;10573;50.936;6.978;2023-05-01T07:40:53;101045.47;;;17.30;45.42
20825;BME280;10573;50.936;6.978;2023-05-01T07:43:19;101043.34;;;17.40;44.94
20825;BME280;10573;50.936;6.978;2023-05-01T07:45:53;101041.63;;;17.39;44.72
20825;BME280;10573;50.936;6.978;2023-05-01T07:48:20;101043.72;;;17.60;44.44
20825;BME280;10573;50.936;6.978;2023-05-01T07:50:45;101040.16;;;17.52;44.81
20825;BME280;10573;50.936;6.978;2023-05-01T07:53:11;101036.91;;;17.71;44.20
20825;BME280;10573;50.936;6.978;2023-05-01T07:55:36;101039.38;;;17.66;43.96
20825;BME280;10573;50.936;6.978;2023-05-01T07:58:02;101035.19;;;17.70;43.53
20825;BME280;10573;50.936;6.978;2023-05-01T08:00:28;101041.13;;;17.36;44.41
20825;BME280;10573;50.936;6.978;2023-05-01T08:02:53;101043.09;;;17.73;43.77
20825;BME280;10573;50.936;6.978;2023-05-01T08:05:19;101036.31;;;17.61;43.69
20825;BME280;10573;50.936;6.978;2023-05-01T08:07:44;101041.94;;;17.68;43.71
20825;BME280;10573;50.936;6.978;2023-05-01T08:10:10;101034.38;;;17.85;43.56
20825;BME280;10573;50.936;6.978;2023-05-01T08:12:35;101038.34;;;17.67;43.75
20825;BME280;10573;50.936;6.978;2023-05-01T08:15:00;101035.19;;;17.93;43.02
20825;BME280;10573;50.936;6.978;2023-05-01T08:17:26;101038.13;;;17.92;43.45
20825;BME280;10573;50.936;6.978;2023-05-01T08:19:51;101044.28;;;17.94;43.22
20825;BME280;10573;50.936;6.978;2023-05-01T08:22:21;101038.84;;;18.24;43.32
20825;BME280;10573;50.936;6.978;2023-05-01T08:24:46;101032.66;;;18.22;42.93
20825;BME280;10573;50.936;6.978;2023-05-01T08:27:11;101040.47;;;18.18;42.80
20825;BME280;10573;50.936;6.978;2023-05-01T08:29:37;101037.13;;;18.53;41.92
20825;BME280;10573;50.936;6.978;2023-05-01T08:32:02;101031.50;;;18.61;41.84
20825;BME280;10573;50.936;6.978;2023-05-01T08:34:27;101026.88;;;18.47;41.51
20825;BME280;10573;50.936;6.978;2023-05-01T08:36:53;101024.56;;;18.35;41.24
20825;BME280;10573;50.936;6.978;2023-05-01T08:39:18;101026.84;;;18.61;41.27
20825;BME280;10573;50.936;6.978;2023-05-01T08:41:47;101030.84;;;18.59;41.13
20825;BME280;10573;50.936;6.978;2023-05-01T08:44:13;101028.16;;;18.81;40.95
20825;BME280;10573;50.936;6.978;2023-05-01T08:47:10;101033.22;;;18.62;41.19
20825;BME280;10573;50.936;6.978;2023-05-01T08:49:43;101026.84;;;18.76;40.66
20825;BME280;10573;50.936;6.978;2023-05-01T08:52:12;101018.03;;;19.18;40.28
20825;BME280;10573;50.936;6.978;2023-05-01T08:54:42;101029.22;;;19.53;39.27
20825;BME280;10573;50.936;6.978;2023-05-01T08:57:10;101018.53;;;19.28;39.78
20825;BME280;10573;50.936;6.978;2023-05-01T08:59:36;101018.22;;;19.59;39.14
20825;BME280;10573;50.936;6.978;2023-05-01T09:02:03;101018.50;;;19.71;38.83
20825;BME280;10573;50.936;6.978;2023-05-01T09:04:37;101018.41;;;19.79;39.24
20825;BME280;10573;50.936;6.978;2023-05-01T09:07:03;101023.00;;;19.72;38.53
20825;BME280;10573;50.936;6.978;2023-05-01T09:09:29;101021.03;;;19.66;38.90
20825;BME280;10573;50.936;6.978;2023-05-01T09:14:41;101021.19;;;20.08;38.38
20825;BME280;10573;50.936;6.978;2023-05-01T09:17:07;101017.72;;;19.99;38.30
20825;BME280;10573;50.936;6.978;2023-05-01T09:19:32;101025.69;;;19.87;38.61
20825;BME280;10573;50.936;6.978;2023-05-01T09:21:58;101025.34;;;20.25;38.60
20825;BME280;10573;50.936;6.978;2023-05-01T09:24:24;101022.09;;;20.50;37.52
20825;BME280;10573;50.936;6.978;2023-05-01T09:26:50;101021.28;;;20.21;38.18
20825;BME280;10573;50.936;6.978;2023-05-01T09:29:38;101018.50;;;20.56;37.70
20825;BME280;10573;50.936;6.978;2023-05-01T09:32:15;101015.91;;;20.13;37.98
20825;BME280;10573;50.936;6.978;2023-05-01T09:34:41;101012.13;;;20.21;37.94
20825;BME280;10573;50.936;6.978;2023-05-01T09:37:31;101015.78;;;20.28;37.70
20825;BME280;10573;50.936;6.978;2023-05-01T09:40:15;101012.59;;;19.96;39.10
20825;BME280;10573;50.936;6.978;2023-05-01T09:42:51;101016.53;;;20.50;38.50
20825;BME280;10573;50.936;6.978;2023-05-01T09:45:17;101020.81;;;20.53;37.43
20825;BME280;10573;50.936;6.978;2023-05-01T09:47:46;101024.81;;;20.08;38.66
20825;BME280;10573;50.936;6.978;2023-05-01T09:52:54;101021.09;;;20.65;38.01
20825;BME280;10573;50.936;6.978;2023-05-01T09:55:20;101017.03;;;21.02;38.20
20825;BME280;10573;50.936;6.978;2023-05-01T09:57:47;101008.56;;;21.24;36.29
20825;BME280;10573;50.936;6.978;2023-05-01T10:00:14;101002.56;;;21.27;36.87
20825;BME280;10573;50.936;6.978;2023-05-01T10:02:41;101007.56;;;21.58;36.49
20825;BME280;10573;50.936;6.978;2023-05-01T10:05:09;101006.28;;;22.15;35.21
20825;BME280;10573;50.936;6.978;2023-05-01T10:07:34;100998.00;;;22.73;34.77
20825;BME280;10573;50.936;6.978;2023-05-01T10:10:19;100998.69;;;23.14;33.76
20825;BME280;10573;50.936;6.978;2023-05-01T10:12:46;100997.63;;;22.63;34.91
20825;BME280;10573;50.936;6.978;2023-05-01T10:15:11;100996.66;;;22.83;33.69
20825;BME280;10573;50.936;6.978;2023-05-01T10:17:38;100989.66;;;23.19;33.03
20825;BME280;10573;50.936;6.978;2023-05-01T10:20:06;100991.72;;;22.26;34.52
20825;BME280;10573;50.936;6.978;2023-05-01T10:22:32;100982.91;;;23.01;33.27
20825;BME280;10573;50.936;6.978;2023-05-01T10:24:58;100983.56;;;23.92;31.43
20825;BME280;10573;50.936;6.978;2023-05-01T10:27:25;100979.56;;;23.82;30.56
20825;BME280;10573;50.936;6.978;2023-05-01T10:29:52;100981.88;;;23.34;31.00
20825;BME280;10573;50.936;6.978;2023-05-01T10:32:19;100975.47;;;22.50;32.18
20825;BME280;10573;50.936;6.978;2023-05-01T10:34:48;100978.13;;;23.47;33.24
20825;BME280;10573;50.936;6.978;2023-05-01T10:37:31;100958.78;;;25.68;30.03
20825;BME280;10573;50.936;6.978;2023-05-01T10:39:58;100960.50;;;26.17;28.71
20825;BME280;10573;50.936;6.978;2023-05-01T10:42:24;100960.97;;;25.78;29.79
20825;BME280;10573;50.936;6.978;2023-05-01T10:44:50;100964.22;;;25.51;29.15
20825;BME280;10573;50.936;6.978;2023-05-01T10:55:44;100945.94;;;25.79;28.55
20825;BME280;10573;50.936;6.978;2023-05-01T11:03:57;100945.78;;;25.62;29.30
20825;BME280;10573;50.936;6.978;2023-05-01T11:06:23;100945.88;;;25.43;28.00
20825;BME280;10573;50.936;6.978;2023-05-01T11:08:49;100947.34;;;25.34;28.00
20825;BME280;10573;50.936;6.978;2023-05-01T11:14:05;100944.06;;;25.07;27.63
20825;BME280;10573;50.936;6.978;2023-05-01T11:22:11;100932.81;;;26.96;25.55
20825;BME280;10573;50.936;6.978;2023-05-01T11:24:37;100926.84;;;27.22;24.49
20825;BME280;10573;50.936;6.978;2023-05-01T11:27:03;100932.69;;;26.74;25.70
20825;BME280;10573;50.936;6.978;2023-05-01T11:29:31;100933.63;;;27.09;25.54
20825;BME280;10573;50.936;6.978;2023-05-01T11:31:58;100931.31;;;27.86;24.81
20825;BME280;10573;50.936;6.978;2023-05-01T11:34:25;100937.94;;;26.59;25.72
20825;BME280;10573;50.936;6.978;2023-05-01T11:36:51;100928.97;;;27.15;25.42
20825;BME280;10573;50.936;6.978;2023-05-01T11:39:18;100929.44;;;27.74;24.01
20825;BME280;10573;50.936;6.978;2023-05-01T11:41:44;100928.63;;;27.40;24.95
20825;BME280;10573;50.936;6.978;2023-05-01T11:44:11;100924.22;;;27.15;24.81
20825;BME280;10573;50.936;6.978;2023-05-01T11:46:37;100929.09;;;26.91;24.82
20825;BME280;10573;50.936;6.978;2023-05-01T11:49:02;100924.47;;;26.03;26.28
20825;BME280;10573;50.936;6.978;2023-05-01T11:51:28;100925.91;;;26.18;26.63
20825;BME280;10573;50.936;6.978;2023-05-01T11:54:04;100917.50;;;26.99;24.95
20825;BME280;10573;50.936;6.978;2023-05-01T11:56:30;100921.88;;;27.24;24.83
20825;BME280;10573;50.936;6.978;2023-05-01T11:58:56;100931.00;;;25.19;27.18
20825;BME280;10573;50.936;6.978;2023-05-01T12:01:35;100921.53;;;25.51;26.81
20825;BME280;10573;50.936;6.978;2023-05-01T12:04:03;100924.34;;;25.62;27.03
20825;BME280;10573;50.936;6.978;2023-05-01T12:06:50;100923.66;;;24.64;28.07
20825;BME280;10573;50.936;6.978;2023-05-01T12:09:18;100921.00;;;22.87;29.87
20825;BME280;10573;50.936;6.978;2023-05-01T12:11:45;100928.72;;;23.49;29.59
20825;BME280;10573;50.936;6.978;2023-05-01T12:14:11;100926.69;;;24.25;29.81
20825;BME280;10573;50.936;6.978;2023-05-01T12:16:36;100916.03;;;24.90;28.14
20825;BME280;10573;50.936;6.978;2023-05-01T12:19:04;100917.72;;;24.91;27.34
20825;BME280;10573;50.936;6.978;2023-05-01T12:21:30;100911.94;;;25.04;27.41
20825;BME280;10573;50.936;6.978;2023-05-01T12:23:56;100911.38;;;24.84;27.62
20825;BME280;10573;50.936;6.978;2023-05-01T12:26:24;100911.72;;;25.18;27.54
20825;BME280;10573;50.936;6.978;2023-05-01T12:28:56;100915.94;;;24.66;28.60
20825;BME280;10573;50.936;6.978;2023-05-01T12:31:22;100917.34;;;24.87;27.29
20825;BME280;10573;50.936;6.978;2023-05-01T12:33:54;100913.25;;;24.90;28.08
20825;BME280;10573;50.936;6.978;2023-05-01T12:36:21;100903.56;;;24.92;27.23
20825;BME280;10573;50.936;6.978;2023-05-01T12:39:22;100903.72;;;25.09;28.28
20825;BME280;10573;50.936;6.978;2023-05-01T12:41:44;100904.41;;;24.93;27.47
20825;BME280;10573;50.936;6.978;2023-05-01T12:46:41;100907.28;;;24.00;28.32
20825;BME280;10573;50.936;6.978;2023-05-01T12:49:07;100903.84;;;24.54;28.66
20825;BME280;10573;50.936;6.978;2023-05-01T12:51:32;100907.72;;;24.16;28.13
20825;BME280;10573;50.936;6.978;2023-05-01T12:53:57;100899.69;;;26.19;26.06
20825;BME280;10573;50.936;6.978;2023-05-01T12:56:23;100897.72;;;27.69;24.25
20825;BME280;10573;50.936;6.978;2023-05-01T12:58:50;100889.31;;;30.04;22.10
20825;BME280;10573;50.936;6.978;2023-05-01T13:01:26;100879.41;;;30.50;21.72
20825;BME280;10573;50.936;6.978;2023-05-01T13:03:52;100884.56;;;30.84;20.48
20825;BME280;10573;50.936;6.978;2023-05-01T13:06:18;100887.34;;;30.68;20.65
20825;BME280;10573;50.936;6.978;2023-05-01T13:08:44;100876.72;;;31.17;20.94
20825;BME280;10573;50.936;6.978;2023-05-01T13:11:12;100883.53;;;30.32;21.53
20825;BME280;10573;50.936;6.978;2023-05-01T13:13:39;100878.59;;;29.53;20.52
20825;BME280;10573;50.936;6.978;2023-05-01T13:16:09;100891.56;;;28.28;21.45
20825;BME280;10573;50.936;6.978;2023-05-01T13:18:50;100885.75;;;28.57;22.17
20825;BME280;10573;50.936;6.978;2023-05-01T13:21:22;100885.31;;;27.13;23.91
20825;BME280;10573;50.936;6.978;2023-05-01T13:24:05;100890.56;;;26.52;24.77
20825;BME280;10573;50.936;6.978;2023-05-01T13:26:32;100888.44;;;27.00;24.72
20825;BME280;10573;50.936;6.978;2023-05-01T13:29:00;100890.69;;;26.17;24.96
20825;BME280;10573;50.936;6.978;2023-05-01T13:31:27;100882.56;;;27.48;24.20
20825;BME280;10573;50.936;6.978;2023-05-01T13:33:54;100893.56;;;27.71;22.84